Time;durP1;ratioP1;P1;durP2;ratioP2;P2;SDS_P1;SDS_P2;PMS_P1;PMS_P2;Temp;Humidity;BMP_temperature;BMP_pressure;BME280_temperature;BME280_humidity;BME280_pressure;Samples;Min_cycle;Max_cycle;Signal;HPM_P1;HPM_P2
2023/08/03 00:00:40;;;;;;;3.08;1.73;;;21.60;52.10;;;;;;4984922;28;116316;-77
2023/08/03 00:03:07;;;;;;;3.00;1.27;;;21.70;52.10;;;;;;4986585;28;114050;-79
2023/08/03 00:05:34;;;;;;;2.75;1.40;;;21.70;52.10;;;;;;4987327;28;114163;-78
2023/08/03 00:08:01;;;;;;;3.10;1.73;;;21.70;52.00;;;;;;4984797;28;115603;-77
2023/08/03 00:10:29;;;;;;;4.00;1.60;;;21.70;52.00;;;;;;4986510;28;114698;-78
2023/08/03 00:12:56;;;;;;;5.20;1.70;;;21.70;52.10;;;;;;4987120;28;114098;-78
2023/08/03 00:15:23;;;;;;;3.22;1.90;;;21.70;52.30;;;;;;4985688;28;114318;-78
2023/08/03 00:17:50;;;;;;;3.45;1.65;;;21.70;52.30;;;;;;4986117;28;114951;-78
2023/08/03 00:20:18;;;;;;;3.38;1.80;;;21.70;52.40;;;;;;4986481;28;114896;-78
2023/08/03 00:22:46;;;;;;;4.10;1.80;;;21.80;52.50;;;;;;4986981;28;114371;-78
2023/08/03 00:25:13;;;;;;;5.07;1.77;;;21.80;52.40;;;;;;4987244;28;114390;-78
2023/08/03 00:27:40;;;;;;;2.80;1.60;;;21.80;52.50;;;;;;4985400;28;115398;-78
2023/08/03 00:30:08;;;;;;;3.00;1.77;;;21.90;51.90;;;;;;4985950;28;114571;-78
2023/08/03 00:32:36;;;;;;;4.50;1.80;;;22.00;52.20;;;;;;4985517;28;114236;-79
2023/08/03 00:35:04;;;;;;;3.60;1.60;;;22.00;52.10;;;;;;4986985;28;114104;-78
2023/08/03 00:37:31;;;;;;;4.13;1.90;;;22.00;52.20;;;;;;4968239;28;114864;-78
2023/08/03 00:39:58;;;;;;;2.45;1.70;;;22.00;52.10;;;;;;4984384;28;114640;-78
2023/08/03 00:42:25;;;;;;;3.08;1.70;;;22.00;52.40;;;;;;4986455;28;114360;-78
2023/08/03 00:44:52;;;;;;;4.70;1.75;;;22.00;52.30;;;;;;4987152;28;114074;-79
2023/08/03 00:47:19;;;;;;;4.72;1.60;;;22.00;52.20;;;;;;4984469;28;115017;-78
2023/08/03 00:49:46;;;;;;;3.83;1.80;;;22.00;52.10;;;;;;4984897;28;114538;-78
2023/08/03 00:52:13;;;;;;;2.80;1.58;;;22.10;52.30;;;;;;4984964;28;114319;-78
2023/08/03 00:54:40;;;;;;;3.05;1.70;;;22.10;52.40;;;;;;4986062;28;114556;-78
2023/08/03 00:57:07;;;;;;;4.38;1.85;;;22.10;52.50;;;;;;4985284;28;114873;-78
2023/08/03 00:59:34;;;;;;;4.40;2.15;;;22.00;52.50;;;;;;4985597;28;114614;-78
2023/08/03 01:02:02;;;;;;;3.08;1.60;;;22.00;52.50;;;;;;4986508;28;114129;-78
2023/08/03 01:04:29;;;;;;;4.65;1.90;;;21.90;52.70;;;;;;4986493;28;114179;-79
2023/08/03 01:06:56;;;;;;;2.72;1.60;;;21.80;52.90;;;;;;4985233;28;116184;-78
2023/08/03 01:09:23;;;;;;;3.53;1.60;;;21.80;53.10;;;;;;4985867;28;114585;-78
2023/08/03 01:11:50;;;;;;;4.28;1.73;;;21.80;53.20;;;;;;4986142;28;114119;-78
2023/08/03 01:14:17;;;;;;;2.95;1.65;;;21.70;53.30;;;;;;4985139;28;114465;-78
2023/08/03 01:16:44;;;;;;;4.22;1.63;;;21.70;53.30;;;;;;4983483;28;116174;-78
2023/08/03 01:19:12;;;;;;;3.65;1.85;;;21.70;53.30;;;;;;4985298;28;114736;-79
2023/08/03 01:21:40;;;;;;;6.03;1.40;;;21.70;53.40;;;;;;4984921;28;114379;-78
2023/08/03 01:24:07;;;;;;;3.03;1.80;;;21.70;53.40;;;;;;4984835;28;114367;-78
2023/08/03 01:26:34;;;;;;;2.95;1.60;;;21.70;53.50;;;;;;4984999;28;115004;-79
2023/08/03 01:29:02;;;;;;;3.55;2.00;;;21.70;53.50;;;;;;4985256;28;115189;-77
2023/08/03 01:31:29;;;;;;;3.80;1.52;;;21.70;53.50;;;;;;4985979;28;114223;-78
2023/08/03 01:33:57;;;;;;;2.78;1.63;;;21.70;53.40;;;;;;4986366;28;114446;-78
2023/08/03 01:36:24;;;;;;;3.00;1.85;;;21.80;53.50;;;;;;4950242;28;117827;-78
2023/08/03 01:38:55;;;;;;;3.30;1.80;;;21.80;53.00;;;;;;4984661;28;115796;-78
2023/08/03 01:41:22;;;;;;;4.10;2.20;;;22.00;52.70;;;;;;4985230;28;114347;-78
2023/08/03 01:44:21;;;;;;;4.18;1.92;;;22.00;53.10;;;;;;4984440;28;114419;-77
2023/08/03 01:46:48;;;;;;;4.40;2.33;;;22.20;51.70;;;;;;4985024;28;115544;-78
2023/08/03 01:49:16;;;;;;;4.07;2.20;;;22.30;51.60;;;;;;4985268;28;114547;-78
2023/08/03 01:51:43;;;;;;;3.65;2.20;;;22.30;51.40;;;;;;4969431;28;114172;-77
2023/08/03 01:54:11;;;;;;;5.00;2.63;;;22.40;51.30;;;;;;4988324;28;114285;-78
2023/08/03 01:56:38;;;;;;;4.32;2.17;;;22.40;52.00;;;;;;4989259;28;114804;-78
2023/08/03 01:59:06;;;;;;;4.45;2.13;;;22.40;52.10;;;;;;4988190;28;114883;-77
2023/08/03 02:01:33;;;;;;;4.43;2.10;;;22.30;52.40;;;;;;4988083;28;114340;-77
2023/08/03 02:04:00;;;;;;;3.72;1.88;;;22.30;52.60;;;;;;4989267;28;114342;-78
2023/08/03 02:06:27;;;;;;;3.20;2.20;;;22.20;52.90;;;;;;4986604;28;115026;-77
2023/08/03 02:08:54;;;;;;;3.83;2.00;;;22.10;53.10;;;;;;4970913;28;117883;-78
2023/08/03 02:11:22;;;;;;;3.55;2.03;;;22.00;53.10;;;;;;4988716;28;114301;-78
2023/08/03 02:13:49;;;;;;;3.03;1.85;;;22.00;53.40;;;;;;4988135;28;114292;-78
2023/08/03 02:16:16;;;;;;;3.72;2.05;;;21.90;53.90;;;;;;4986625;28;114999;-78
2023/08/03 02:18:51;;;;;;;4.60;2.03;;;21.80;53.90;;;;;;4986859;28;114737;-78
2023/08/03 02:21:18;;;;;;;3.55;2.00;;;21.80;53.90;;;;;;4971372;28;114103;-79
2023/08/03 02:23:45;;;;;;;4.10;2.20;;;21.80;53.40;;;;;;4989252;28;114026;-78
2023/08/03 02:26:12;;;;;;;2.80;1.70;;;21.90;53.50;;;;;;4988110;28;114985;-78
2023/08/03 02:28:39;;;;;;;4.10;2.28;;;22.00;52.80;;;;;;4987023;28;114769;-78
2023/08/03 02:31:06;;;;;;;3.40;2.25;;;22.10;53.50;;;;;;4987113;28;114418;-78
2023/08/03 02:33:40;;;;;;;4.25;2.38;;;22.20;53.70;;;;;;4987626;28;114198;-78
2023/08/03 02:36:08;;;;;;;3.15;2.20;;;22.20;53.70;;;;;;4969862;28;114969;-79
2023/08/03 02:38:35;;;;;;;4.88;2.15;;;22.30;53.50;;;;;;4986858;28;114865;-78
2023/08/03 02:41:03;;;;;;;2.85;1.85;;;22.40;52.40;;;;;;4987444;28;114400;-78
2023/08/03 02:43:32;;;;;;;3.40;1.90;;;22.50;51.30;;;;;;4987578;28;114339;-78
2023/08/03 02:46:01;;;;;;;3.35;2.13;;;22.60;51.50;;;;;;4986418;28;114938;-78
2023/08/03 02:48:30;;;;;;;3.25;1.90;;;22.70;51.90;;;;;;4986726;28;114715;-78
2023/08/03 02:50:59;;;;;;;3.67;1.90;;;22.70;51.00;;;;;;4972062;28;114443;-78
2023/08/03 02:53:29;;;;;;;3.15;2.10;;;22.80;50.80;;;;;;4987014;28;114368;-78
2023/08/03 02:55:57;;;;;;;5.28;2.80;;;22.80;51.20;;;;;;4986691;28;115219;-78
2023/08/03 02:58:24;;;;;;;5.13;2.67;;;22.80;52.80;;;;;;4987445;28;114676;-79
2023/08/03 03:00:51;;;;;;;2.92;1.75;;;22.80;52.30;;;;;;4986913;28;114262;-78
2023/08/03 03:03:19;;;;;;;4.55;2.45;;;22.80;50.70;;;;;;4969319;28;114269;-78
2023/08/03 03:05:47;;;;;;;3.67;2.20;;;22.80;51.00;;;;;;4986099;28;114867;-77
2023/08/03 03:08:15;;;;;;;3.20;1.80;;;22.80;50.60;;;;;;4986217;28;114830;-78
2023/08/03 03:10:44;;;;;;;3.50;1.88;;;22.90;50.30;;;;;;4970854;28;114288;-77
2023/08/03 03:13:11;;;;;;;3.92;1.75;;;22.90;50.10;;;;;;4987362;28;114035;-77
2023/08/03 03:15:41;;;;;;;2.85;1.80;;;22.90;50.50;;;;;;4985955;28;114961;-78
2023/08/03 03:18:09;;;;;;;3.33;1.80;;;22.90;50.10;;;;;;4969865;28;117711;-78
2023/08/03 03:20:37;;;;;;;3.47;1.85;;;22.90;50.60;;;;;;4986645;28;114689;-78
2023/08/03 03:23:07;;;;;;;4.05;2.45;;;22.90;50.80;;;;;;4986674;28;114376;-78
2023/08/03 03:25:34;;;;;;;4.93;2.25;;;22.90;52.50;;;;;;4986970;28;115122;-78
2023/08/03 03:28:04;;;;;;;5.13;2.20;;;22.80;53.00;;;;;;4987040;28;114555;-79
2023/08/03 03:30:35;;;;;;;3.72;2.20;;;22.50;53.90;;;;;;4987118;28;114656;-78
2023/08/03 03:33:02;;;;;;;4.65;2.40;;;22.30;53.50;;;;;;4986942;28;114475;-78
2023/08/03 03:35:29;;;;;;;3.80;2.40;;;22.20;54.20;;;;;;4985216;28;114904;-78
2023/08/03 03:37:56;;;;;;;3.20;1.92;;;22.20;54.00;;;;;;4985700;28;115981;-78
2023/08/03 03:40:28;;;;;;;4.93;2.33;;;22.20;53.20;;;;;;4986589;28;114289;-78
2023/08/03 03:42:57;;;;;;;3.47;2.10;;;22.20;54.30;;;;;;4986257;28;114327;-78
2023/08/03 03:45:24;;;;;;;3.03;1.85;;;22.20;53.90;;;;;;4985055;28;115016;-78
2023/08/03 03:47:51;;;;;;;3.72;2.05;;;22.20;53.70;;;;;;4986722;28;114800;-77
2023/08/03 03:50:18;;;;;;;3.78;2.20;;;22.20;54.40;;;;;;4985942;28;114256;-78
2023/08/03 03:52:46;;;;;;;4.03;2.13;;;22.10;55.30;;;;;;4987309;28;114265;-77
2023/08/03 03:55:16;;;;;;;4.10;2.30;;;22.00;55.70;;;;;;4969082;28;116147;-78
2023/08/03 03:57:46;;;;;;;3.72;2.22;;;22.00;55.90;;;;;;4985117;28;114610;-78
2023/08/03 04:00:13;;;;;;;4.47;2.20;;;21.90;56.20;;;;;;4987257;28;114106;-78
2023/08/03 04:02:42;;;;;;;3.17;1.98;;;21.90;54.70;;;;;;4987956;28;114256;-79
2023/08/03 04:05:15;;;;;;;3.40;2.40;;;21.80;55.00;;;;;;4985216;28;115073;-78
2023/08/03 04:07:43;;;;;;;3.85;2.20;;;21.90;54.90;;;;;;4984893;28;114680;-78
2023/08/03 04:10:10;;;;;;;4.05;2.40;;;22.00;55.20;;;;;;4986852;28;114208;-78
2023/08/03 04:12:37;;;;;;;3.85;2.10;;;22.10;54.10;;;;;;4986128;28;114393;-78
2023/08/03 04:15:04;;;;;;;3.65;2.00;;;22.20;52.90;;;;;;4985733;28;115686;-77
2023/08/03 04:17:32;;;;;;;3.58;2.47;;;22.30;53.10;;;;;;4986024;28;115100;-79
2023/08/03 04:19:59;;;;;;;3.90;2.28;;;22.30;54.60;;;;;;4985897;28;114291;-77
2023/08/03 04:22:26;;;;;;;4.43;2.40;;;22.30;53.70;;;;;;4952848;28;114169;-79
2023/08/03 04:24:54;;;;;;;6.00;2.42;;;22.20;54.70;;;;;;4968022;28;115552;-78
2023/08/03 04:27:21;;;;;;;3.95;2.45;;;22.00;55.80;;;;;;4986411;28;115137;-78
2023/08/03 04:29:48;;;;;;;3.35;2.28;;;21.90;55.10;;;;;;4952985;28;114595;-78
2023/08/03 04:32:16;;;;;;;4.70;2.22;;;22.00;53.40;;;;;;4985751;28;114230;-78
2023/08/03 04:34:44;;;;;;;3.92;2.53;;;22.20;54.30;;;;;;4984166;28;115163;-78
2023/08/03 04:37:11;;;;;;;5.53;2.95;;;22.30;54.70;;;;;;4967230;28;116220;-77
2023/08/03 04:39:40;;;;;;;5.38;2.80;;;22.30;55.50;;;;;;4985290;28;114563;-78
2023/08/03 04:42:07;;;;;;;5.15;2.65;;;22.40;53.80;;;;;;4985400;28;114622;-78
2023/08/03 04:44:36;;;;;;;3.90;2.65;;;22.40;54.00;;;;;;4967818;28;119031;-80
2023/08/03 04:47:04;;;;;;;3.92;2.70;;;22.50;52.40;;;;;;4984779;28;114839;-78
2023/08/03 04:49:31;;;;;;;6.68;2.40;;;22.50;54.40;;;;;;4985434;28;114298;-78
2023/08/03 04:52:03;;;;;;;4.00;3.08;;;22.50;54.90;;;;;;4985707;28;114452;-78
2023/08/03 04:54:31;;;;;;;4.65;2.80;;;22.30;55.10;;;;;;4984582;28;114892;-78
2023/08/03 04:56:58;;;;;;;4.72;2.95;;;22.20;55.90;;;;;;4984342;28;114852;-79
2023/08/03 04:59:27;;;;;;;7.13;3.15;;;22.20;56.30;;;;;;4984811;28;114406;-79
2023/08/03 05:01:54;;;;;;;4.93;3.25;;;22.10;56.10;;;;;;4985518;28;114118;-78
2023/08/03 05:04:22;;;;;;;4.57;2.95;;;22.10;55.70;;;;;;4985526;28;116167;-78
2023/08/03 05:06:49;;;;;;;5.72;2.92;;;22.10;55.50;;;;;;4985434;28;115318;-79
2023/08/03 05:09:16;;;;;;;4.75;3.03;;;22.10;56.10;;;;;;4986591;28;114354;-78
2023/08/03 05:11:43;;;;;;;5.07;2.90;;;22.10;56.00;;;;;;4985326;28;114311;-78
2023/08/03 05:14:11;;;;;;;5.18;2.90;;;22.00;55.80;;;;;;4968258;28;115028;-77
2023/08/03 05:16:38;;;;;;;6.22;2.92;;;21.80;56.50;;;;;;4968259;28;117396;-78
2023/08/03 05:19:05;;;;;;;4.82;2.83;;;21.80;56.70;;;;;;4969638;28;114227;-79
2023/08/03 05:21:33;;;;;;;3.75;2.65;;;21.80;56.10;;;;;;4986126;28;114140;-78
2023/08/03 05:24:00;;;;;;;3.35;2.25;;;21.80;54.50;;;;;;4984633;28;116259;-78
2023/08/03 05:26:27;;;;;;;4.30;2.90;;;22.00;54.00;;;;;;4985201;28;115505;-78
2023/08/03 05:28:55;;;;;;;5.00;3.58;;;22.20;53.70;;;;;;4988410;28;114639;-78
2023/08/03 05:31:22;;;;;;;4.57;2.90;;;22.30;53.40;;;;;;4990120;28;114241;-78
2023/08/03 05:33:49;;;;;;;4.45;2.63;;;22.30;54.10;;;;;;4989816;28;114905;-78
2023/08/03 05:36:16;;;;;;;4.05;2.95;;;22.40;54.10;;;;;;4988834;28;114630;-79
2023/08/03 05:38:43;;;;;;;3.90;2.63;;;22.50;52.70;;;;;;4989751;28;114221;-79
2023/08/03 05:41:14;;;;;;;4.43;2.95;;;22.60;53.30;;;;;;4989808;28;114179;-79
2023/08/03 05:43:41;;;;;;;4.10;2.67;;;22.60;52.60;;;;;;4987818;28;114901;-78
2023/08/03 05:46:13;;;;;;;5.72;3.15;;;22.60;52.80;;;;;;4987801;28;114572;-78
2023/08/03 05:48:40;;;;;;;6.38;3.47;;;22.60;54.10;;;;;;4987976;28;114364;-78
2023/08/03 05:51:09;;;;;;;7.35;3.20;;;22.60;55.10;;;;;;4989412;28;114647;-78
2023/08/03 05:53:36;;;;;;;5.10;2.78;;;22.70;54.30;;;;;;4988734;28;115544;-78
2023/08/03 05:56:08;;;;;;;6.88;3.03;;;22.60;52.70;;;;;;4987325;28;114848;-79
2023/08/03 05:58:38;;;;;;;5.90;2.80;;;22.70;53.80;;;;;;4988344;28;114320;-79
2023/08/03 06:01:06;;;;;;;5.90;2.80;;;22.70;53.60;;;;;;4988437;28;114264;-78
2023/08/03 06:03:36;;;;;;;6.50;3.05;;;22.70;53.00;;;;;;4987324;28;114940;-79
2023/08/03 06:06:04;;;;;;;4.80;2.88;;;22.70;54.90;;;;;;4987718;28;114601;-78
2023/08/03 06:08:32;;;;;;;4.25;2.40;;;22.60;56.00;;;;;;4988275;28;114359;-79
2023/08/03 06:11:01;;;;;;;4.38;2.70;;;22.50;53.40;;;;;;4989711;28;114392;-80
2023/08/03 06:13:33;;;;;;;4.32;2.83;;;22.60;55.70;;;;;;4988646;28;114905;-78
2023/08/03 06:16:07;;;;;;;5.32;2.50;;;22.50;53.80;;;;;;4987028;28;114684;-78
2023/08/03 06:18:46;;;;;;;5.07;2.70;;;22.50;54.80;;;;;;4989112;28;114246;-79
2023/08/03 06:21:13;;;;;;;5.00;2.60;;;22.40;53.40;;;;;;4987993;28;114292;-79
2023/08/03 06:23:40;;;;;;;4.53;2.70;;;22.30;56.10;;;;;;4986776;28;116201;-78
2023/08/03 06:26:11;;;;;;;5.00;2.80;;;22.30;55.70;;;;;;4970570;28;114995;-78
2023/08/03 06:28:38;;;;;;;4.30;2.65;;;22.20;57.80;;;;;;4987868;28;114426;-77
2023/08/03 06:31:15;;;;;;;6.38;2.50;;;22.20;56.30;;;;;;4987883;28;114432;-77
2023/08/03 06:33:43;;;;;;;6.57;3.13;;;22.20;56.40;;;;;;4986857;28;115242;-78
2023/08/03 06:36:20;;;;;;;7.30;2.60;;;22.20;58.80;;;;;;4987354;28;114559;-78
2023/08/03 06:38:48;;;;;;;4.95;3.10;;;22.20;56.60;;;;;;4987088;28;114272;-78
2023/08/03 06:41:15;;;;;;;5.20;2.70;;;22.10;55.30;;;;;;4989334;28;114288;-79
2023/08/03 06:43:42;;;;;;;4.70;3.20;;;22.20;57.00;;;;;;4988280;28;114837;-79
2023/08/03 06:46:09;;;;;;;4.57;2.72;;;22.20;57.20;;;;;;4986132;28;115967;-78
2023/08/03 06:48:36;;;;;;;4.95;2.90;;;22.30;57.00;;;;;;4988916;28;114052;-79
2023/08/03 06:51:03;;;;;;;6.03;2.90;;;22.30;57.30;;;;;;4987608;28;114223;-79
2023/08/03 06:53:30;;;;;;;4.80;2.60;;;22.20;57.30;;;;;;4986918;28;114850;-79
2023/08/03 06:55:57;;;;;;;4.10;2.38;;;22.20;57.40;;;;;;4988361;28;114629;-78
2023/08/03 06:58:25;;;;;;;4.95;2.70;;;22.10;57.30;;;;;;4988312;28;114250;-78
2023/08/03 07:00:52;;;;;;;3.78;2.15;;;22.10;55.50;;;;;;4988449;28;114169;-78
2023/08/03 07:03:19;;;;;;;4.78;3.03;;;22.00;55.30;;;;;;4969375;28;114950;-79
2023/08/03 07:05:46;;;;;;;4.55;2.50;;;22.10;57.30;;;;;;4987561;28;114600;-78
2023/08/03 07:08:13;;;;;;;12.50;2.80;;;22.00;57.00;;;;;;4988452;28;114553;-78
2023/08/03 07:10:41;;;;;;;5.13;2.50;;;21.80;59.30;;;;;;4988848;28;114783;-79
2023/08/03 07:13:08;;;;;;;4.35;2.30;;;21.60;59.50;;;;;;4987211;28;114825;-78
2023/08/03 07:15:35;;;;;;;3.67;2.50;;;21.40;60.40;;;;;;4987288;28;114636;-77
2023/08/03 07:18:03;;;;;;;4.95;2.72;;;21.40;59.90;;;;;;4970516;28;114424;-78
2023/08/03 07:20:31;;;;;;;5.32;2.20;;;21.30;60.10;;;;;;4987471;28;114255;-78
2023/08/03 07:22:58;;;;;;;4.15;2.40;;;21.20;60.20;;;;;;4987259;28;114994;-77
2023/08/03 07:25:25;;;;;;;4.00;2.53;;;21.20;59.10;;;;;;4986882;28;114720;-78
2023/08/03 07:27:52;;;;;;;3.97;2.40;;;21.30;59.10;;;;;;4986237;28;114443;-79
2023/08/03 07:30:19;;;;;;;5.30;2.60;;;21.40;58.10;;;;;;4986767;28;114994;-79
2023/08/03 07:32:46;;;;;;;4.57;2.30;;;21.40;59.20;;;;;;4986926;28;114953;-79
2023/08/03 07:35:14;;;;;;;3.97;2.65;;;21.40;58.80;;;;;;4985690;28;115237;-78
2023/08/03 07:37:41;;;;;;;4.20;2.35;;;21.40;57.70;;;;;;4988339;28;114591;-77
2023/08/03 07:40:08;;;;;;;3.40;2.30;;;21.50;58.50;;;;;;4988099;28;114597;-79
2023/08/03 07:42:35;;;;;;;4.50;2.20;;;21.40;58.00;;;;;;4987058;28;114975;-77
2023/08/03 07:45:02;;;;;;;3.58;2.33;;;21.50;57.60;;;;;;4987543;28;115673;-79
2023/08/03 07:47:31;;;;;;;4.97;2.70;;;21.40;57.00;;;;;;4988881;28;114050;-78
2023/08/03 07:49:58;;;;;;;4.30;2.53;;;21.50;57.30;;;;;;4987747;28;114371;-78
2023/08/03 07:52:25;;;;;;;4.07;2.63;;;21.50;57.50;;;;;;4986542;28;114979;-79
2023/08/03 07:54:54;;;;;;;7.10;2.88;;;21.30;58.00;;;;;;4987105;28;114740;-79
2023/08/03 07:57:22;;;;;;;6.70;3.28;;;21.30;57.70;;;;;;4987800;28;115598;-79
2023/08/03 07:59:49;;;;;;;4.97;3.35;;;21.30;57.40;;;;;;4986352;28;114237;-78
2023/08/03 08:02:17;;;;;;;7.68;3.05;;;21.10;57.40;;;;;;4986871;28;114880;-78
2023/08/03 08:04:51;;;;;;;5.55;3.03;;;21.00;58.10;;;;;;4988744;28;114719;-78
2023/08/03 08:07:18;;;;;;;5.38;2.75;;;20.90;58.20;;;;;;4989972;28;114221;-79
2023/08/03 08:09:46;;;;;;;5.18;2.83;;;20.90;58.30;;;;;;4986686;28;114349;-77
2023/08/03 08:12:13;;;;;;;5.38;2.55;;;20.80;58.10;;;;;;4986321;28;114068;-77
2023/08/03 08:14:40;;;;;;;4.07;2.28;;;20.70;58.30;;;;;;4985268;28;115096;-78
2023/08/03 08:17:07;;;;;;;4.93;2.40;;;20.70;57.90;;;;;;4987572;28;114257;-78
2023/08/03 08:19:37;;;;;;;5.35;2.90;;;20.60;58.10;;;;;;4987920;28;114291;-79
2023/08/03 08:22:06;;;;;;;7.80;2.53;;;20.60;58.30;;;;;;4986222;28;115445;-80
2023/08/03 08:24:43;;;;;;;5.60;2.63;;;20.70;57.80;;;;;;4986256;28;114764;-78
2023/08/03 08:27:10;;;;;;;5.10;2.22;;;20.70;57.70;;;;;;4986918;28;114196;-79
2023/08/03 08:29:38;;;;;;;6.32;2.88;;;20.70;58.00;;;;;;4987071;28;114275;-78
2023/08/03 08:32:06;;;;;;;4.40;2.30;;;20.80;57.80;;;;;;4985631;28;116509;-78
2023/08/03 08:34:33;;;;;;;3.33;1.90;;;20.80;57.60;;;;;;4985970;28;114664;-78
2023/08/03 08:37:00;;;;;;;4.10;2.33;;;20.80;57.60;;;;;;4986604;28;114217;-79
2023/08/03 08:39:29;;;;;;;4.47;2.30;;;20.80;57.60;;;;;;4987051;28;114048;-80
2023/08/03 08:41:57;;;;;;;4.70;2.58;;;20.70;58.10;;;;;;4984971;28;116198;-80
2023/08/03 08:44:24;;;;;;;4.50;2.58;;;20.80;58.00;;;;;;4984821;28;114754;-79
2023/08/03 08:46:51;;;;;;;4.70;2.10;;;20.80;58.00;;;;;;4987656;28;114368;-78
2023/08/03 08:49:18;;;;;;;3.75;2.30;;;20.90;58.10;;;;;;4985788;28;114381;-79
2023/08/03 08:51:48;;;;;;;6.15;3.30;;;21.00;57.60;;;;;;4985628;28;114946;-79
2023/08/03 08:54:18;;;;;;;5.43;2.92;;;21.00;57.20;;;;;;4984338;28;115169;-79
2023/08/03 08:56:45;;;;;;;5.75;2.88;;;20.90;56.80;;;;;;4986780;28;114115;-79
2023/08/03 08:59:16;;;;;;;5.10;2.83;;;20.80;57.50;;;;;;4987016;28;114303;-76
2023/08/03 09:01:53;;;;;;;4.95;3.03;;;20.80;57.60;;;;;;4985702;28;116091;-78
2023/08/03 09:04:27;;;;;;;10.18;3.20;;;21.00;57.40;;;;;;4985445;28;114467;-77
2023/08/03 09:07:00;;;;;;;9.07;2.55;;;21.20;57.20;;;;;;4985808;28;114339;-79
2023/08/03 09:09:34;;;;;;;6.63;2.78;;;21.10;56.90;;;;;;4986314;28;114226;-79
2023/08/03 09:12:01;;;;;;;7.07;2.63;;;21.10;56.60;;;;;;4985449;28;114845;-80
2023/08/03 09:14:29;;;;;;;5.32;3.38;;;21.10;56.40;;;;;;4984168;28;114664;-79
2023/08/03 09:17:15;;;;;;;5.28;3.30;;;21.10;56.50;;;;;;4986260;28;114444;-78
2023/08/03 09:19:43;;;;;;;5.35;3.58;;;21.20;56.60;;;;;;4985861;28;114467;-80
2023/08/03 09:22:14;;;;;;;6.82;3.05;;;21.00;57.30;;;;;;4985361;28;115010;-78
2023/08/03 09:25:05;;;;;;;5.30;2.80;;;21.00;57.50;;;;;;4985425;28;115756;-80
2023/08/03 09:27:33;;;;;;;5.60;2.45;;;20.90;57.40;;;;;;4986314;28;114384;-77
2023/08/03 09:30:04;;;;;;;4.65;2.78;;;20.70;57.70;;;;;;4986619;28;114011;-78
2023/08/03 09:32:41;;;;;;;8.70;3.28;;;20.60;58.20;;;;;;4984750;28;115221;-78
2023/08/03 09:35:18;;;;;;;10.10;3.50;;;20.70;58.50;;;;;;4983610;28;114649;-77
2023/08/03 09:37:45;;;;;;;9.50;3.63;;;20.80;57.90;;;;;;4985973;28;114337;-78
2023/08/03 09:40:13;;;;;;;10.27;4.45;;;20.90;57.80;;;;;;4984807;28;114214;-78
2023/08/03 09:42:40;;;;;;;5.15;3.17;;;21.00;57.70;;;;;;4985373;28;115312;-80
2023/08/03 09:45:08;;;;;;;8.23;3.72;;;21.00;57.30;;;;;;4984387;28;114653;-79
2023/08/03 09:47:52;;;;;;;5.60;2.88;;;21.10;56.70;;;;;;4985939;28;114109;-78
2023/08/03 09:50:20;;;;;;;9.00;3.65;;;21.20;56.60;;;;;;4985108;28;114019;-78
2023/08/03 09:52:48;;;;;;;5.47;3.15;;;21.30;56.00;;;;;;4987555;28;115372;-79
2023/08/03 09:55:20;;;;;;;5.93;2.92;;;21.50;55.60;;;;;;4955269;28;116632;-77
2023/08/03 09:58:02;;;;;;;6.05;3.10;;;21.60;55.10;;;;;;4988380;28;114392;-79
2023/08/03 10:00:30;;;;;;;4.72;2.88;;;21.60;54.50;;;;;;4985266;28;114001;-79
2023/08/03 10:03:12;;;;;;;5.65;2.88;;;21.70;54.40;;;;;;4983559;28;116173;-78
2023/08/03 10:05:43;;;;;;;7.22;3.25;;;21.80;54.20;;;;;;4984190;28;114748;-79
2023/08/03 10:08:39;;;;;;;7.13;3.28;;;21.80;54.30;;;;;;4986325;28;114779;-79
2023/08/03 10:11:09;;;;;;;8.90;3.80;;;22.00;54.10;;;;;;4986138;28;114252;-78
2023/08/03 10:13:40;;;;;;;9.73;3.40;;;22.00;54.10;;;;;;4987619;28;115172;-79
2023/08/03 10:16:08;;;;;;;6.03;3.20;;;22.10;54.20;;;;;;4988826;28;114659;-76
2023/08/03 10:18:38;;;;;;;5.68;3.15;;;22.10;53.30;;;;;;4989110;28;114456;-79
2023/08/03 10:21:08;;;;;;;5.38;3.28;;;22.20;53.40;;;;;;4988066;28;114167;-78
2023/08/03 10:23:38;;;;;;;5.30;2.67;;;22.20;52.60;;;;;;4988297;28;114980;-79
2023/08/03 10:26:07;;;;;;;6.18;2.90;;;22.20;52.60;;;;;;4987249;28;114827;-79
2023/08/03 10:28:40;;;;;;;6.32;2.90;;;22.30;52.00;;;;;;4988742;28;114247;-78
2023/08/03 10:31:10;;;;;;;4.70;3.00;;;22.30;52.00;;;;;;4989026;28;114341;-79
2023/08/03 10:33:50;;;;;;;4.82;3.28;;;22.40;52.40;;;;;;4986732;28;114942;-79
2023/08/03 10:36:30;;;;;;;5.45;3.35;;;22.50;52.20;;;;;;4985998;28;118007;-79
2023/08/03 10:39:06;;;;;;;5.65;3.38;;;22.60;52.10;;;;;;4988401;28;114221;-79
2023/08/03 10:41:37;;;;;;;5.30;3.15;;;22.50;52.00;;;;;;4987739;28;114718;-78
2023/08/03 10:44:13;;;;;;;5.43;3.13;;;22.70;51.90;;;;;;4987783;28;114983;-78
2023/08/03 10:46:41;;;;;;;4.85;3.20;;;22.70;51.80;;;;;;4987920;28;114601;-78
2023/08/03 10:49:21;;;;;;;5.28;3.17;;;22.70;51.60;;;;;;4988588;28;114093;-78
2023/08/03 10:51:51;;;;;;;5.05;3.22;;;22.80;50.90;;;;;;4972138;28;114295;-77
2023/08/03 10:54:19;;;;;;;5.13;3.08;;;22.80;51.00;;;;;;4987859;28;116978;-77
2023/08/03 10:57:09;;;;;;;4.75;2.67;;;22.80;50.80;;;;;;4986537;28;114959;-77
2023/08/03 10:59:44;;;;;;;6.32;2.80;;;22.90;50.50;;;;;;4986818;28;114476;-78
2023/08/03 11:02:19;;;;;;;6.22;3.50;;;22.90;50.80;;;;;;4988633;28;114356;-78
2023/08/03 11:04:46;;;;;;;5.43;2.77;;;22.90;50.80;;;;;;4986551;28;114996;-77
2023/08/03 11:07:16;;;;;;;4.68;2.38;;;22.90;50.50;;;;;;4987148;28;114669;-78
2023/08/03 11:09:45;;;;;;;5.15;2.90;;;23.00;49.80;;;;;;4971250;28;114314;-78
2023/08/03 11:12:14;;;;;;;5.80;3.00;;;22.90;50.10;;;;;;4987296;28;114229;-79
2023/08/03 11:14:41;;;;;;;5.30;3.13;;;22.90;49.60;;;;;;4987627;28;115154;-78
2023/08/03 11:17:08;;;;;;;4.38;2.58;;;22.90;50.00;;;;;;4986710;28;115222;-78
2023/08/03 11:19:39;;;;;;;6.43;3.10;;;22.90;49.20;;;;;;4987434;28;114342;-79
2023/08/03 11:22:08;;;;;;;3.80;2.38;;;22.80;49.80;;;;;;4988793;28;114292;-79
2023/08/03 11:24:35;;;;;;;5.55;2.22;;;22.80;49.70;;;;;;4985092;28;115232;-79
2023/08/03 11:27:03;;;;;;;3.88;2.10;;;22.80;49.10;;;;;;4987569;28;115295;-78
2023/08/03 11:29:39;;;;;;;4.85;2.50;;;22.80;48.80;;;;;;4988799;28;114132;-78
2023/08/03 11:32:11;;;;;;;5.50;2.58;;;22.80;49.00;;;;;;4989124;28;114303;-79
2023/08/03 11:34:39;;;;;;;5.28;2.95;;;22.60;49.40;;;;;;4987345;28;115500;-79
2023/08/03 11:37:10;;;;;;;7.72;3.05;;;22.60;50.00;;;;;;4987299;28;114534;-79
2023/08/03 11:39:37;;;;;;;6.75;2.83;;;22.70;50.20;;;;;;4987816;28;114177;-79
2023/08/03 11:42:05;;;;;;;5.40;2.67;;;22.70;50.40;;;;;;4986930;28;114337;-79
2023/08/03 11:44:38;;;;;;;5.30;3.30;;;22.70;49.70;;;;;;4986826;28;115030;-77
2023/08/03 11:47:22;;;;;;;5.78;2.53;;;22.70;50.20;;;;;;4987186;28;114271;-79
2023/08/03 11:49:52;;;;;;;4.82;2.30;;;22.70;49.90;;;;;;4987280;28;114208;-79
2023/08/03 11:52:20;;;;;;;4.07;2.42;;;22.70;49.20;;;;;;4988700;28;114269;-79
2023/08/03 11:54:48;;;;;;;5.63;2.63;;;22.70;49.30;;;;;;4987533;28;114972;-78
2023/08/03 12:00:02;;;;;;;5.45;2.97;;;22.50;49.80;;;;;;4987970;28;114045;-78
2023/08/03 12:02:39;;;;;;;5.72;2.80;;;22.50;50.10;;;;;;4988171;28;114322;-76
2023/08/03 12:05:07;;;;;;;5.93;2.90;;;22.50;50.30;;;;;;4986473;28;115447;-78
2023/08/03 12:07:37;;;;;;;6.40;2.67;;;22.50;50.50;;;;;;4985399;28;115961;-78
2023/08/03 12:10:13;;;;;;;5.40;2.60;;;22.60;50.00;;;;;;4987359;28;114177;-79
2023/08/03 12:12:43;;;;;;;5.05;2.88;;;22.60;50.20;;;;;;4986078;28;114510;-78
2023/08/03 12:15:15;;;;;;;4.65;2.95;;;22.60;50.20;;;;;;4968368;28;116156;-79
2023/08/03 12:17:42;;;;;;;4.80;3.05;;;22.70;50.40;;;;;;4985825;28;114586;-79
2023/08/03 12:20:10;;;;;;;5.03;2.75;;;22.70;50.30;;;;;;4987178;28;114161;-78
2023/08/03 12:22:37;;;;;;;4.65;2.70;;;22.80;49.70;;;;;;4986275;28;114499;-80
2023/08/03 12:25:05;;;;;;;3.60;1.98;;;22.80;49.50;;;;;;4968381;28;118147;-78
2023/08/03 12:27:32;;;;;;;3.08;1.92;;;22.80;48.80;;;;;;4984885;28;115184;-76
2023/08/03 12:30:03;;;;;;;3.05;1.60;;;22.70;48.50;;;;;;4986518;28;114069;-79
2023/08/03 12:32:30;;;;;;;4.15;2.13;;;22.60;47.60;;;;;;4987086;28;114200;-79
2023/08/03 12:34:59;;;;;;;3.92;1.88;;;22.50;48.10;;;;;;4985662;28;116771;-79
2023/08/03 12:37:26;;;;;;;4.88;2.65;;;22.40;47.30;;;;;;4985691;28;115037;-79
2023/08/03 12:39:53;;;;;;;4.65;2.15;;;22.30;49.00;;;;;;4985394;28;114150;-78
2023/08/03 12:42:20;;;;;;;4.38;2.22;;;22.30;48.80;;;;;;4986381;28;114092;-77
2023/08/03 12:44:48;;;;;;;5.43;2.50;;;22.30;48.70;;;;;;4984441;28;114972;-78
2023/08/03 12:47:15;;;;;;;4.53;1.95;;;22.30;49.00;;;;;;4986317;28;114655;-77